Time;durP1;ratioP1;P1;durP2;ratioP2;P2;SDS_P1;SDS_P2;PMS_P1;PMS_P2;Temp;Humidity;BMP_temperature;BMP_pressure;BME280_temperature;BME280_humidity;BME280_pressure;Samples;Min_cycle;Max_cycle;Signal;HPM_P1;HPM_P2
2023/09/04 00:02:18;;;;;;;7.20;6.57;;;12.60;99.90;;;;;;6119061;23;20423;-85
2023/09/04 00:04:43;;;;;;;8.80;8.00;;;12.90;99.90;;;;;;6090513;23;20412;-86
2023/09/04 00:07:09;;;;;;;7.20;6.60;;;12.20;99.90;;;;;;6118960;23;20404;-86
2023/09/04 00:09:35;;;;;;;5.60;5.18;;;12.40;99.90;;;;;;6116707;23;20364;-86
2023/09/04 00:12:01;;;;;;;3.97;3.38;;;12.20;99.90;;;;;;6092852;23;20781;-86
2023/09/04 00:14:26;;;;;;;6.03;5.53;;;12.50;99.90;;;;;;6091602;23;20380;-85
2023/09/04 00:16:52;;;;;;;6.00;5.50;;;12.00;99.90;;;;;;6092239;23;20385;-86
2023/09/04 00:19:17;;;;;;;8.70;7.90;;;12.60;99.90;;;;;;6118629;23;20365;-86
2023/09/04 00:21:43;;;;;;;6.38;5.88;;;12.60;99.90;;;;;;6066926;23;20407;-86
2023/09/04 00:24:09;;;;;;;5.70;5.30;;;12.80;99.90;;;;;;6092766;23;20377;-86
2023/09/04 00:26:35;;;;;;;7.33;6.73;;;12.60;99.90;;;;;;6117039;23;20364;-85
2023/09/04 00:29:01;;;;;;;8.50;7.80;;;12.20;99.90;;;;;;6092718;23;20404;-86
2023/09/04 00:31:26;;;;;;;5.60;5.03;;;12.20;99.90;;;;;;6090562;23;20400;-85
2023/09/04 00:33:52;;;;;;;8.23;7.53;;;12.60;99.90;;;;;;6092830;23;20383;-86
2023/09/04 00:36:18;;;;;;;7.37;6.77;;;12.60;99.90;;;;;;6096544;23;20897;-86
2023/09/04 00:38:43;;;;;;;8.25;7.65;;;12.20;99.90;;;;;;6117837;23;20380;-85
2023/09/04 00:41:09;;;;;;;8.05;7.35;;;12.20;99.90;;;;;;6117007;23;20412;-85
2023/09/04 00:43:38;;;;;;;7.53;6.93;;;12.20;99.90;;;;;;6115147;23;20421;-86
2023/09/04 00:46:05;;;;;;;7.38;6.78;;;12.30;99.90;;;;;;6118636;23;20400;-86
2023/09/04 00:48:33;;;;;;;7.50;6.83;;;12.10;99.90;;;;;;6114887;23;20385;-86
2023/09/04 00:50:59;;;;;;;7.57;6.78;;;12.10;99.90;;;;;;6117340;23;20897;-85
2023/09/04 00:53:26;;;;;;;6.55;5.95;;;12.30;99.90;;;;;;6091377;23;20408;-85
2023/09/04 00:55:52;;;;;;;7.95;7.25;;;11.90;99.90;;;;;;6092195;23;20385;-85
2023/09/04 00:58:18;;;;;;;9.80;8.98;;;12.20;99.90;;;;;;6116980;23;20388;-85
2023/09/04 01:00:45;;;;;;;7.10;6.60;;;12.00;99.90;;;;;;6114980;23;20377;-86
2023/09/04 01:03:12;;;;;;;7.65;6.95;;;12.30;99.90;;;;;;6117473;23;20431;-87
2023/09/04 01:05:38;;;;;;;8.57;7.88;;;12.30;99.90;;;;;;6116671;23;20377;-86
2023/09/04 01:08:04;;;;;;;9.18;8.38;;;12.10;99.90;;;;;;6120463;23;20864;-85
2023/09/04 01:10:45;;;;;;;7.93;7.25;;;12.00;99.90;;;;;;6118565;23;20904;-85
2023/09/04 01:13:24;;;;;;;8.52;7.82;;;12.40;99.90;;;;;;6093653;23;20384;-85
2023/09/04 01:15:51;;;;;;;7.32;6.72;;;11.90;99.90;;;;;;6094604;23;20389;-85
2023/09/04 01:18:17;;;;;;;6.43;5.82;;;11.80;99.90;;;;;;6116588;23;20376;-85
2023/09/04 01:20:43;;;;;;;6.80;6.20;;;12.00;99.90;;;;;;6120833;23;20722;-86
2023/09/04 01:23:09;;;;;;;7.97;7.28;;;12.00;99.90;;;;;;6116545;23;20427;-85
2023/09/04 01:25:43;;;;;;;9.00;8.25;;;12.00;99.90;;;;;;6118991;23;20391;-86
2023/09/04 01:28:22;;;;;;;8.50;7.80;;;12.10;99.90;;;;;;6117378;23;20727;-84
2023/09/04 01:31:04;;;;;;;8.03;7.30;;;11.80;99.90;;;;;;6117195;23;20435;-85
2023/09/04 01:33:37;;;;;;;8.27;7.47;;;11.70;99.90;;;;;;6120448;23;20380;-85
2023/09/04 01:36:07;;;;;;;7.47;6.78;;;12.00;99.90;;;;;;6117800;23;20382;-84
2023/09/04 01:38:34;;;;;;;7.07;6.50;;;11.70;99.90;;;;;;6070248;23;20375;-86
2023/09/04 01:41:04;;;;;;;6.50;5.90;;;11.80;99.90;;;;;;6068599;23;20372;-85
2023/09/04 01:43:30;;;;;;;7.10;6.50;;;11.80;99.90;;;;;;6093409;23;20877;-86
2023/09/04 01:45:56;;;;;;;7.53;6.93;;;12.00;99.90;;;;;;6094068;23;20383;-85
2023/09/04 01:48:22;;;;;;;7.35;6.75;;;12.00;99.90;;;;;;6092146;23;20863;-86
2023/09/04 01:50:47;;;;;;;7.40;6.80;;;11.70;99.90;;;;;;6094132;23;20457;-85
2023/09/04 01:53:13;;;;;;;7.70;7.00;;;11.80;99.90;;;;;;6067596;23;20392;-85
2023/09/04 01:55:39;;;;;;;7.53;6.85;;;11.80;99.90;;;;;;6094158;23;20373;-85
2023/09/04 01:58:04;;;;;;;7.53;6.83;;;11.20;99.90;;;;;;6092088;23;20384;-85
2023/09/04 02:00:30;;;;;;;20.02;8.38;;;11.80;99.90;;;;;;6120008;23;20378;-85
2023/09/04 02:02:55;;;;;;;20.67;8.30;;;11.80;99.90;;;;;;6093040;23;20376;-85
2023/09/04 02:05:21;;;;;;;31.93;10.07;;;11.90;99.90;;;;;;6092795;23;20380;-85
2023/09/04 02:07:47;;;;;;;40.35;11.45;;;11.70;99.90;;;;;;6119779;23;20373;-85
2023/09/04 02:10:12;;;;;;;13.30;10.03;;;11.80;99.90;;;;;;6117651;23;20407;-86
2023/09/04 02:12:38;;;;;;;14.20;11.50;;;11.50;99.90;;;;;;6093785;23;20440;-86
2023/09/04 02:15:05;;;;;;;15.63;10.60;;;11.60;99.90;;;;;;6091247;23;20368;-86
2023/09/04 02:17:30;;;;;;;12.95;10.32;;;11.50;99.90;;;;;;6120393;23;20364;-85
2023/09/04 02:19:58;;;;;;;13.30;10.50;;;11.70;99.90;;;;;;6091970;23;20918;-85
2023/09/04 02:22:24;;;;;;;35.20;13.15;;;11.70;99.90;;;;;;6093218;23;20381;-85
2023/09/04 02:24:50;;;;;;;32.47;12.23;;;11.60;99.90;;;;;;6119326;23;20855;-85
2023/09/04 02:27:15;;;;;;;13.13;11.83;;;11.40;99.90;;;;;;6117920;23;20365;-85
2023/09/04 02:29:41;;;;;;;12.20;11.00;;;11.60;99.90;;;;;;6093486;23;20779;-86
2023/09/04 02:32:07;;;;;;;11.30;10.30;;;11.60;99.90;;;;;;6091471;23;20660;-85
2023/09/04 02:34:32;;;;;;;11.13;10.10;;;11.80;99.90;;;;;;6093753;23;20863;-86
2023/09/04 02:36:58;;;;;;;11.02;10.02;;;11.70;99.90;;;;;;6104386;23;20376;-85
2023/09/04 02:39:24;;;;;;;11.40;10.40;;;11.30;99.90;;;;;;6117779;23;20988;-86
2023/09/04 02:41:50;;;;;;;9.75;8.85;;;11.40;99.90;;;;;;6117164;23;20387;-85
2023/09/04 02:44:15;;;;;;;10.25;9.30;;;11.50;99.90;;;;;;6116789;23;20846;-85
2023/09/04 02:46:41;;;;;;;9.82;8.93;;;11.80;99.90;;;;;;6117631;23;20391;-85
2023/09/04 02:49:07;;;;;;;9.10;8.20;;;10.80;99.90;;;;;;6115782;23;20388;-86
2023/09/04 02:51:33;;;;;;;11.33;10.23;;;10.80;99.90;;;;;;6117869;23;20411;-86
2023/09/04 02:53:58;;;;;;;9.45;8.55;;;11.40;99.90;;;;;;6115555;23;20380;-85
2023/09/04 02:56:24;;;;;;;8.13;7.43;;;11.30;99.90;;;;;;6119423;23;20368;-86
2023/09/04 02:58:50;;;;;;;9.07;8.17;;;11.40;99.90;;;;;;6117574;23;20364;-85
2023/09/04 03:01:18;;;;;;;11.52;10.32;;;11.50;99.90;;;;;;6117686;23;20377;-86
2023/09/04 03:03:44;;;;;;;9.85;8.90;;;11.30;99.90;;;;;;6117608;23;20412;-85
2023/09/04 03:06:10;;;;;;;10.25;9.32;;;11.20;99.90;;;;;;6115952;23;20381;-85
2023/09/04 03:08:38;;;;;;;10.20;9.30;;;11.00;99.90;;;;;;6119323;23;20747;-85
2023/09/04 03:11:10;;;;;;;10.60;9.55;;;11.10;99.90;;;;;;6115226;23;20471;-85
2023/09/04 03:13:37;;;;;;;9.97;9.07;;;10.90;99.90;;;;;;6117738;23;20459;-85
2023/09/04 03:16:07;;;;;;;12.13;10.95;;;11.20;99.90;;;;;;6115680;23;20380;-85
2023/09/04 03:18:34;;;;;;;13.07;11.88;;;11.20;99.90;;;;;;6117366;23;20707;-86
2023/09/04 03:21:01;;;;;;;11.30;10.27;;;11.10;99.90;;;;;;6118493;23;20726;-85
2023/09/04 03:23:26;;;;;;;9.95;9.05;;;11.30;99.90;;;;;;6115753;23;20432;-85
2023/09/04 03:25:52;;;;;;;12.48;11.27;;;11.10;99.90;;;;;;6117528;23;20735;-86
2023/09/04 03:28:18;;;;;;;9.63;8.73;;;11.70;99.90;;;;;;6115479;23;20869;-85
2023/09/04 03:30:43;;;;;;;10.00;8.85;;;11.30;99.90;;;;;;6117386;23;20893;-86
2023/09/04 03:33:09;;;;;;;10.43;9.43;;;10.90;99.90;;;;;;6116837;23;20873;-85
2023/09/04 03:35:34;;;;;;;8.30;7.60;;;10.70;99.90;;;;;;6118796;23;20843;-86
2023/09/04 03:38:00;;;;;;;9.00;8.20;;;11.00;99.90;;;;;;6067715;23;20384;-85
2023/09/04 03:40:28;;;;;;;8.63;7.73;;;11.60;99.90;;;;;;6068305;23;20377;-85
2023/09/04 03:42:55;;;;;;;11.00;9.80;;;10.80;99.90;;;;;;6068872;23;20381;-85
2023/09/04 03:45:21;;;;;;;8.55;7.78;;;11.10;99.90;;;;;;6091154;23;20389;-86
2023/09/04 03:47:48;;;;;;;9.30;8.40;;;11.00;99.90;;;;;;6092830;23;20817;-86
2023/09/04 03:50:14;;;;;;;10.13;9.23;;;10.90;99.90;;;;;;6116306;23;20440;-85
2023/09/04 03:52:41;;;;;;;9.25;8.38;;;11.00;99.90;;;;;;6092956;23;20373;-85
2023/09/04 03:55:09;;;;;;;7.53;6.90;;;10.80;99.90;;;;;;6066683;23;20457;-85
2023/09/04 03:57:39;;;;;;;9.03;8.13;;;10.50;99.90;;;;;;6092626;23;20396;-85
2023/09/04 04:00:14;;;;;;;10.05;9.05;;;11.10;99.90;;;;;;6093104;23;20846;-86
2023/09/04 04:02:41;;;;;;;10.32;9.35;;;10.50;99.90;;;;;;6090906;23;20380;-85
2023/09/04 04:05:07;;;;;;;8.63;7.73;;;10.80;99.90;;;;;;6092724;23;20380;-86
2023/09/04 04:07:32;;;;;;;9.33;8.50;;;10.50;99.90;;;;;;6090659;23;20460;-86
2023/09/04 04:09:58;;;;;;;9.27;8.37;;;11.10;99.90;;;;;;6092939;23;20372;-85
2023/09/04 04:12:24;;;;;;;9.90;9.00;;;10.70;99.90;;;;;;6091317;23;20858;-85
2023/09/04 04:14:54;;;;;;;9.03;8.20;;;10.70;99.90;;;;;;6118602;23;20361;-85
2023/09/04 04:17:19;;;;;;;9.13;8.30;;;10.10;99.90;;;;;;6068197;23;20404;-85
2023/09/04 04:19:45;;;;;;;9.73;8.83;;;11.10;99.90;;;;;;6090931;23;20424;-85
2023/09/04 04:22:11;;;;;;;10.57;9.50;;;10.60;99.90;;;;;;6092594;23;20388;-86
2023/09/04 04:24:37;;;;;;;11.70;10.50;;;10.40;99.90;;;;;;6090603;23;20380;-85
2023/09/04 04:27:02;;;;;;;10.10;9.07;;;10.60;99.90;;;;;;6092930;23;20373;-85
2023/09/04 04:29:28;;;;;;;9.63;8.73;;;10.30;99.90;;;;;;6090554;23;20376;-85
2023/09/04 04:31:54;;;;;;;10.07;9.07;;;10.70;99.90;;;;;;6092609;23;20407;-85
2023/09/04 04:34:19;;;;;;;9.73;8.80;;;10.40;99.90;;;;;;6091518;23;20373;-87
2023/09/04 04:36:45;;;;;;;8.18;7.47;;;10.50;99.90;;;;;;6102106;23;20742;-86
2023/09/04 04:39:10;;;;;;;10.93;9.83;;;10.20;99.90;;;;;;6093829;23;20380;-85
2023/09/04 04:41:37;;;;;;;12.27;10.23;;;10.40;99.90;;;;;;6117052;23;20484;-85
2023/09/04 04:44:03;;;;;;;8.95;8.13;;;10.70;99.90;;;;;;6118961;23;20373;-85
2023/09/04 04:46:29;;;;;;;7.90;7.20;;;10.20;99.90;;;;;;6118491;23;20695;-85
2023/09/04 04:48:55;;;;;;;7.43;6.82;;;10.30;99.90;;;;;;6117470;23;20377;-85
2023/09/04 04:51:21;;;;;;;7.60;6.87;;;10.10;99.90;;;;;;6116552;23;20400;-87
2023/09/04 04:53:46;;;;;;;7.23;6.63;;;10.60;99.90;;;;;;6118428;23;20380;-87
2023/09/04 04:56:12;;;;;;;8.30;7.53;;;10.30;99.90;;;;;;6118526;23;20471;-84
2023/09/04 04:58:38;;;;;;;8.13;7.32;;;10.90;99.90;;;;;;6116640;23;20718;-87
2023/09/04 05:01:06;;;;;;;8.60;7.90;;;10.20;99.90;;;;;;6118695;23;20380;-87
2023/09/04 05:03:32;;;;;;;10.13;9.23;;;10.60;99.90;;;;;;6115287;23;20369;-86
2023/09/04 05:05:58;;;;;;;9.13;8.23;;;10.40;99.90;;;;;;6118127;23;20699;-86
2023/09/04 05:08:23;;;;;;;9.73;8.83;;;10.50;99.90;;;;;;6116018;23;20862;-86
2023/09/04 05:11:01;;;;;;;7.75;7.13;;;10.60;99.90;;;;;;6118504;23;20808;-86
2023/09/04 05:13:26;;;;;;;9.10;8.30;;;10.60;99.90;;;;;;6118056;23;20377;-87
2023/09/04 05:15:52;;;;;;;9.23;8.43;;;10.90;99.90;;;;;;6117238;23;20650;-86
2023/09/04 05:18:17;;;;;;;8.13;7.40;;;10.70;99.90;;;;;;6118593;23;20714;-85
2023/09/04 05:20:43;;;;;;;6.73;6.13;;;10.60;99.90;;;;;;6092191;23;20380;-85
2023/09/04 05:23:09;;;;;;;7.10;6.40;;;10.80;99.90;;;;;;6118754;23;20380;-87
2023/09/04 05:25:34;;;;;;;6.37;5.77;;;11.30;99.90;;;;;;6116768;23;20706;-87
2023/09/04 05:28:00;;;;;;;7.32;6.72;;;11.20;99.90;;;;;;6118657;23;20893;-85
2023/09/04 05:30:25;;;;;;;7.63;6.13;;;10.90;99.90;;;;;;6116891;23;20463;-87
2023/09/04 05:32:53;;;;;;;6.80;6.13;;;11.80;99.90;;;;;;6093555;23;20475;-87
2023/09/04 05:35:18;;;;;;;6.05;5.55;;;10.50;99.90;;;;;;6093905;23;20396;-87
2023/09/04 05:37:44;;;;;;;9.05;8.25;;;11.10;99.90;;;;;;6117914;23;20380;-88
2023/09/04 05:40:10;;;;;;;7.25;6.65;;;11.30;99.90;;;;;;6094066;23;20381;-86
2023/09/04 05:42:36;;;;;;;8.85;8.13;;;11.40;99.90;;;;;;6092016;23;20383;-86
2023/09/04 05:45:03;;;;;;;7.35;6.70;;;12.10;99.90;;;;;;6094022;23;20718;-86
2023/09/04 05:47:29;;;;;;;6.90;6.30;;;11.60;99.90;;;;;;6091944;23;20464;-86
2023/09/04 05:49:54;;;;;;;10.20;9.30;;;11.90;99.90;;;;;;6093278;23;20397;-86
2023/09/04 05:52:20;;;;;;;11.32;10.23;;;12.00;99.90;;;;;;6092703;23;20405;-87
2023/09/04 05:54:46;;;;;;;8.55;7.85;;;12.00;99.90;;;;;;6092376;23;20923;-87
2023/09/04 05:57:11;;;;;;;8.27;7.57;;;12.20;99.90;;;;;;6093782;23;20703;-87
2023/09/04 05:59:37;;;;;;;9.02;8.30;;;12.40;99.90;;;;;;6091853;23;20766;-87
2023/09/04 06:02:03;;;;;;;10.03;9.03;;;12.50;99.90;;;;;;6092289;23;20715;-88
2023/09/04 06:04:28;;;;;;;15.02;12.57;;;12.40;99.90;;;;;;6091552;23;20377;-87
2023/09/04 06:06:54;;;;;;;14.88;13.38;;;12.50;99.90;;;;;;6093799;23;20363;-86
2023/09/04 06:09:20;;;;;;;10.20;9.23;;;12.60;99.90;;;;;;6092098;23;20381;-86
2023/09/04 06:11:45;;;;;;;14.43;12.97;;;12.90;99.90;;;;;;6092168;23;20401;-88
2023/09/04 06:14:11;;;;;;;12.20;11.05;;;12.80;99.90;;;;;;6092320;23;20415;-87
2023/09/04 06:16:37;;;;;;;10.73;9.73;;;12.90;99.90;;;;;;6067615;23;20367;-88
2023/09/04 06:19:02;;;;;;;17.73;16.03;;;13.30;99.90;;;;;;6093504;23;20861;-86
2023/09/04 06:21:28;;;;;;;14.00;12.60;;;13.20;99.90;;;;;;6091775;23;21049;-87
2023/09/04 06:23:54;;;;;;;13.85;12.50;;;13.70;99.90;;;;;;6093578;23;20423;-88
2023/09/04 06:26:19;;;;;;;17.93;16.23;;;13.90;99.90;;;;;;6091227;23;20376;-87
2023/09/04 06:28:45;;;;;;;19.52;17.58;;;14.30;99.90;;;;;;6093590;23;20381;-88
2023/09/04 06:31:11;;;;;;;19.97;17.97;;;14.30;99.90;;;;;;6092094;23;20396;-87
2023/09/04 06:33:37;;;;;;;18.15;16.45;;;14.40;99.90;;;;;;6092339;23;20436;-89
2023/09/04 06:36:04;;;;;;;22.42;20.13;;;14.50;99.90;;;;;;6071577;23;20395;-87
2023/09/04 06:38:30;;;;;;;21.48;19.48;;;14.50;99.90;;;;;;6115937;23;20447;-89
2023/09/04 06:40:58;;;;;;;20.52;18.60;;;14.80;99.90;;;;;;6118327;23;20979;-88
2023/09/04 06:43:28;;;;;;;20.13;18.20;;;15.50;99.90;;;;;;6091309;23;20405;-88
2023/09/04 06:45:53;;;;;;;20.70;18.77;;;15.00;99.90;;;;;;6117935;23;20384;-89
2023/09/04 06:48:20;;;;;;;16.85;15.35;;;15.20;99.90;;;;;;6118274;23;20376;-87
2023/09/04 06:50:49;;;;;;;20.52;18.52;;;15.40;99.90;;;;;;6118903;23;20762;-89
2023/09/04 06:53:16;;;;;;;17.60;16.00;;;16.00;99.90;;;;;;6093510;23;20403;-89
2023/09/04 06:55:42;;;;;;;18.92;17.10;;;15.90;99.90;;;;;;6115813;23;20384;-89
2023/09/04 06:58:08;;;;;;;19.20;17.38;;;16.00;99.90;;;;;;6117014;23;20399;-88
2023/09/04 07:00:34;;;;;;;17.98;16.17;;;16.40;99.90;;;;;;6114070;23;20467;-88
2023/09/04 07:03:00;;;;;;;15.27;13.88;;;16.20;99.90;;;;;;6116745;23;20912;-89
2023/09/04 07:05:26;;;;;;;14.52;13.32;;;16.40;99.90;;;;;;6114367;23;20427;-88
2023/09/04 07:07:51;;;;;;;14.10;12.80;;;16.50;99.90;;;;;;6093370;23;20372;-88
2023/09/04 07:10:17;;;;;;;15.02;13.73;;;16.90;99.90;;;;;;6116791;23;20372;-89
2023/09/04 07:12:43;;;;;;;12.50;11.40;;;16.90;99.90;;;;;;6116508;23;20444;-89
2023/09/04 07:15:09;;;;;;;12.75;11.52;;;16.90;99.90;;;;;;6117559;23;20391;-88
2023/09/04 07:17:34;;;;;;;14.02;12.82;;;17.10;99.90;;;;;;6115664;23;20465;-89
2023/09/04 07:20:00;;;;;;;16.30;14.90;;;17.30;99.90;;;;;;6117887;23;20789;-88
2023/09/04 07:22:25;;;;;;;14.10;12.90;;;17.70;99.90;;;;;;6115537;23;20791;-89
2023/09/04 07:24:52;;;;;;;13.27;12.17;;;17.20;99.90;;;;;;6093350;23;20714;-89
2023/09/04 07:27:17;;;;;;;12.88;11.73;;;17.60;99.90;;;;;;6116066;23;20383;-88
2023/09/04 07:29:43;;;;;;;12.03;10.93;;;18.00;99.90;;;;;;6117097;23;20851;-88
2023/09/04 07:32:09;;;;;;;10.95;9.95;;;18.40;99.90;;;;;;6092746;23;20411;-87
2023/09/04 07:34:35;;;;;;;12.70;11.47;;;18.00;99.90;;;;;;6091501;23;20404;-88
2023/09/04 07:37:01;;;;;;;12.60;11.50;;;18.20;99.90;;;;;;6117435;23;21046;-89
2023/09/04 07:39:26;;;;;;;12.43;11.43;;;18.30;99.90;;;;;;6115511;23;20412;-89
2023/09/04 07:41:54;;;;;;;12.00;11.00;;;18.70;99.90;;;;;;6093128;23;20408;-88
2023/09/04 07:44:19;;;;;;;13.30;12.15;;;18.80;99.90;;;;;;6115042;23;20400;-89
2023/09/04 07:46:45;;;;;;;12.73;11.63;;;18.70;99.90;;;;;;6118601;23;20369;-88
2023/09/04 07:49:12;;;;;;;12.77;11.68;;;18.90;99.90;;;;;;6115164;23;20802;-88
2023/09/04 07:51:37;;;;;;;12.20;11.10;;;19.30;99.90;;;;;;6114686;23;20900;-89
2023/09/04 07:54:04;;;;;;;11.23;10.27;;;19.10;99.90;;;;;;6116330;23;20373;-89
2023/09/04 07:56:30;;;;;;;11.30;10.30;;;19.20;99.90;;;;;;6114463;23;20377;-89
2023/09/04 07:58:55;;;;;;;10.45;9.65;;;19.30;99.90;;;;;;6092896;23;20423;-89
2023/09/04 08:01:21;;;;;;;10.88;9.88;;;19.20;99.90;;;;;;6115053;23;20427;-89
2023/09/04 08:03:46;;;;;;;9.80;9.00;;;19.80;99.90;;;;;;6117344;23;20444;-89
2023/09/04 08:06:12;;;;;;;7.50;6.88;;;19.60;99.90;;;;;;6091536;23;20377;-88
2023/09/04 08:08:38;;;;;;;7.50;6.80;;;19.70;99.90;;;;;;6116981;23;20421;-89
2023/09/04 08:11:04;;;;;;;7.85;7.15;;;19.90;99.90;;;;;;6116757;23;20403;-89
2023/09/04 08:13:29;;;;;;;6.70;6.10;;;19.90;99.90;;;;;;6116418;23;20968;-89
2023/09/04 08:15:55;;;;;;;7.15;6.55;;;20.10;99.90;;;;;;6119367;23;20721;-89
2023/09/04 08:18:21;;;;;;;6.80;6.20;;;19.90;99.90;;;;;;6117075;23;20369;-90
2023/09/04 08:20:48;;;;;;;6.32;5.72;;;19.80;99.90;;;;;;6119365;23;20372;-88
2023/09/04 08:23:14;;;;;;;6.40;5.80;;;20.10;99.90;;;;;;6117237;23;20376;-88
2023/09/04 08:25:39;;;;;;;6.07;5.47;;;20.30;99.90;;;;;;6119313;23;20721;-88
2023/09/04 08:28:05;;;;;;;5.70;5.20;;;20.30;99.90;;;;;;6118082;23;20433;-88
2023/09/04 08:30:31;;;;;;;5.93;5.30;;;20.30;99.90;;;;;;6119839;23;20392;-88
2023/09/04 08:32:57;;;;;;;4.95;4.30;;;20.30;99.90;;;;;;6118989;23;20373;-89
2023/09/04 08:35:24;;;;;;;5.30;4.80;;;20.60;99.90;;;;;;6117388;23;20381;-89
2023/09/04 08:37:50;;;;;;;5.67;4.70;;;20.40;99.90;;;;;;6119357;23;20388;-88
2023/09/04 08:40:16;;;;;;;4.85;4.45;;;20.50;99.90;;;;;;6116940;23;20869;-88
2023/09/04 08:42:43;;;;;;;4.72;4.32;;;20.50;99.90;;;;;;6120887;23;20374;-90
2023/09/04 08:45:09;;;;;;;4.05;3.65;;;20.60;99.90;;;;;;6116993;23;20455;-88
2023/09/04 08:47:40;;;;;;;4.15;3.30;;;20.60;99.90;;;;;;6118751;23;20532;-90
2023/09/04 08:50:07;;;;;;;4.13;3.40;;;20.70;99.90;;;;;;6119107;23;20376;-88
2023/09/04 08:52:35;;;;;;;3.60;3.30;;;20.80;99.90;;;;;;6092432;23;20400;-89
2023/09/04 08:55:01;;;;;;;4.23;3.83;;;20.80;99.90;;;;;;6120609;23;20369;-87
2023/09/04 08:57:29;;;;;;;4.10;3.70;;;20.90;99.90;;;;;;6116670;23;20896;-88
2023/09/04 08:59:55;;;;;;;4.20;3.75;;;21.10;99.90;;;;;;6118846;23;20384;-89
2023/09/04 09:02:20;;;;;;;4.63;3.70;;;21.10;99.90;;;;;;6118659;23;20710;-89
2023/09/04 09:04:47;;;;;;;3.85;3.03;;;21.20;99.90;;;;;;6119010;23;20372;-89
2023/09/04 09:07:14;;;;;;;3.92;3.28;;;21.30;99.90;;;;;;6093738;23;20373;-89
2023/09/04 09:09:46;;;;;;;4.43;3.33;;;21.40;99.90;;;;;;6117554;23;20466;-88
2023/09/04 09:12:12;;;;;;;3.70;3.40;;;21.60;99.90;;;;;;6120251;23;20738;-88
2023/09/04 09:14:38;;;;;;;4.10;3.08;;;21.80;99.90;;;;;;6116882;23;20387;-93
2023/09/04 09:17:10;;;;;;;3.03;2.70;;;21.50;99.90;;;;;;6093440;23;20372;-90
2023/09/04 09:19:37;;;;;;;3.10;2.63;;;21.60;99.90;;;;;;6087175;23;20683;-90
2023/09/04 09:22:14;;;;;;;4.22;3.17;;;21.70;99.90;;;;;;6118542;23;20902;-90
2023/09/04 09:25:00;;;;;;;3.92;2.90;;;21.80;99.90;;;;;;6093416;23;20771;-87
2023/09/04 09:27:28;;;;;;;3.15;2.13;;;21.70;99.90;;;;;;6091047;23;20384;-88
2023/09/04 09:30:04;;;;;;;2.33;2.08;;;21.90;99.90;;;;;;6094555;23;20876;-88
2023/09/04 09:32:31;;;;;;;3.43;2.30;;;22.00;98.80;;;;;;6092992;23;20397;-93
2023/09/04 09:34:58;;;;;;;2.65;2.28;;;22.10;95.80;;;;;;6119843;23;20373;-91
2023/09/04 09:37:25;;;;;;;3.25;2.00;;;22.40;93.60;;;;;;6094184;23;20459;-89
2023/09/04 09:39:51;;;;;;;3.87;2.27;;;22.10;97.30;;;;;;6118850;23;20377;-90
2023/09/04 09:42:20;;;;;;;2.70;2.30;;;22.30;97.60;;;;;;6095009;23;20455;-93
2023/09/04 09:44:45;;;;;;;2.92;2.20;;;22.30;98.20;;;;;;6093694;23;20369;-90
2023/09/04 09:47:13;;;;;;;2.85;2.10;;;22.40;98.40;;;;;;6118648;23;23426;-92
2023/09/04 09:49:43;;;;;;;2.67;2.20;;;22.80;99.90;;;;;;6116692;23;20372;-91
2023/09/04 09:52:10;;;;;;;3.00;1.90;;;22.80;92.30;;;;;;6095037;23;20399;-90
2023/09/04 09:54:38;;;;;;;2.47;1.70;;;22.90;98.60;;;;;;6093420;23;20377;-93
2023/09/04 09:57:09;;;;;;;2.92;2.17;;;23.20;99.90;;;;;;6095024;23;20456;-91
2023/09/04 09:59:45;;;;;;;2.50;1.80;;;23.50;95.90;;;;;;6119399;23;20381;-91
2023/09/04 10:02:18;;;;;;;2.70;1.80;;;24.10;91.40;;;;;;6093556;23;20408;-94
2023/09/04 10:04:44;;;;;;;3.85;2.20;;;23.90;91.30;;;;;;6095666;23;20381;-91
2023/09/04 10:07:17;;;;;;;3.43;1.60;;;24.20;84.70;;;;;;6092575;23;20846;-90
2023/09/04 10:09:51;;;;;;;3.70;2.15;;;24.50;85.10;;;;;;6094411;23;20404;-92
2023/09/04 10:12:35;;;;;;;2.13;1.30;;;25.10;73.60;;;;;;6120843;23;20396;-92
2023/09/04 10:15:03;;;;;;;3.40;1.30;;;25.40;71.40;;;;;;6093006;23;20373;-95
2023/09/04 10:17:45;;;;;;;2.25;1.23;;;25.40;67.60;;;;;;6095666;23;20381;-91
2023/09/04 10:20:13;;;;;;;1.83;1.10;;;25.70;71.60;;;;;;6117638;23;20464;-93
2023/09/04 10:22:56;;;;;;;2.85;1.30;;;26.00;67.20;;;;;;6119350;23;20376;-95
2023/09/04 10:25:52;;;;;;;2.70;1.50;;;26.50;61.00;;;;;;6094660;23;20408;-92
2023/09/04 10:28:24;;;;;;;2.47;1.35;;;26.70;56.50;;;;;;6105558;23;20459;-94
2023/09/04 10:30:55;;;;;;;3.00;1.20;;;26.70;55.50;;;;;;6094835;23;20725;-90
2023/09/04 10:33:21;;;;;;;2.30;0.93;;;26.80;58.50;;;;;;6116354;23;20373;-90
2023/09/04 10:35:47;;;;;;;2.87;1.00;;;26.90;56.00;;;;;;6118029;23;20862;-89
2023/09/04 10:38:13;;;;;;;1.58;1.05;;;27.10;56.00;;;;;;6070630;23;20463;-93
2023/09/04 10:40:43;;;;;;;2.30;1.08;;;27.30;57.60;;;;;;6070368;23;20698;-95
2023/09/04 10:43:09;;;;;;;1.90;1.10;;;27.20;55.00;;;;;;6071651;23;20384;-93
2023/09/04 10:45:35;;;;;;;2.60;1.00;;;27.50;55.90;;;;;;6069303;23;21055;-94
2023/09/04 10:48:01;;;;;;;3.35;1.50;;;27.60;54.90;;;;;;6071550;23;20418;-93
2023/09/04 10:50:27;;;;;;;1.80;0.90;;;27.70;49.90;;;;;;6069133;23;20384;-93
2023/09/04 10:52:54;;;;;;;1.45;0.88;;;27.70;53.30;;;;;;6071187;23;20377;-93
2023/09/04 10:55:19;;;;;;;2.35;1.00;;;27.70;54.50;;;;;;6069396;23;20376;-91
2023/09/04 10:58:02;;;;;;;1.73;0.90;;;28.00;53.40;;;;;;6093933;23;20388;-89
2023/09/04 11:00:34;;;;;;;2.65;0.95;;;28.30;52.00;;;;;;6070393;23;20435;-93
2023/09/04 11:03:16;;;;;;;2.10;1.10;;;28.40;51.70;;;;;;6068242;23;20381;-90
2023/09/04 11:06:07;;;;;;;1.80;0.77;;;28.80;50.20;;;;;;6119866;23;21223;-92
2023/09/04 11:08:38;;;;;;;3.38;1.33;;;28.70;50.40;;;;;;6069177;23;20377;-92
2023/09/04 11:11:06;;;;;;;1.27;0.80;;;28.80;50.60;;;;;;6068721;23;20408;-92
2023/09/04 11:13:40;;;;;;;1.67;0.60;;;29.00;50.30;;;;;;6069914;23;20373;-89
2023/09/04 11:16:08;;;;;;;2.00;0.70;;;28.90;50.70;;;;;;6091721;23;20380;-95
2023/09/04 11:18:36;;;;;;;2.10;1.90;;;29.00;49.60;;;;;;6070548;23;20404;-91
2023/09/04 11:21:03;;;;;;;1.50;0.40;;;29.00;50.00;;;;;;6067412;23;20460;-90
2023/09/04 11:23:29;;;;;;;1.45;0.50;;;29.20;49.20;;;;;;6093498;23;20711;-91
2023/09/04 11:25:55;;;;;;;2.08;0.50;;;29.20;49.80;;;;;;6069025;23;20456;-93
2023/09/04 11:28:27;;;;;;;1.90;0.65;;;29.30;48.90;;;;;;6092514;23;20380;-93
2023/09/04 11:30:59;;;;;;;3.40;0.57;;;29.20;48.30;;;;;;6070052;23;20479;-91
2023/09/04 11:33:26;;;;;;;1.50;0.60;;;29.50;48.20;;;;;;6067468;23;20424;-90
2023/09/04 11:36:02;;;;;;;51.90;48.83;;;29.60;46.30;;;;;;6093991;23;20415;-90
2023/09/04 11:38:31;;;;;;;2.15;1.10;;;29.60;45.70;;;;;;6092342;23;20960;-90
2023/09/04 11:40:57;;;;;;;1.10;0.40;;;29.80;46.90;;;;;;6093910;23;20961;-94
2023/09/04 11:43:27;;;;;;;1.20;0.40;;;30.00;46.00;;;;;;6094213;23;20435;-92
2023/09/04 11:45:59;;;;;;;2.70;0.43;;;30.20;44.90;;;;;;6069270;23;20377;-92
2023/09/04 11:48:26;;;;;;;2.20;0.80;;;30.40;44.20;;;;;;6095345;23;20383;-89
2023/09/04 11:50:53;;;;;;;2.13;0.40;;;30.50;45.90;;;;;;6068145;23;20424;-93
2023/09/04 11:53:19;;;;;;;1.88;0.60;;;30.60;48.50;;;;;;6070911;23;20466;-94
2023/09/04 11:55:46;;;;;;;1.10;0.40;;;30.70;45.60;;;;;;6069888;23;20416;-93
2023/09/04 11:58:12;;;;;;;1.40;0.40;;;31.00;47.50;;;;;;6070414;23;20377;-95
2023/09/04 12:00:40;;;;;;;1.35;0.43;;;31.20;44.40;;;;;;6093944;23;20521;-96
2023/09/04 12:03:06;;;;;;;1.63;0.50;;;31.30;45.20;;;;;;6068100;23;20854;-94
2023/09/04 12:05:33;;;;;;;1.55;0.60;;;31.40;42.40;;;;;;6070026;23;20380;-90
2023/09/04 12:07:59;;;;;;;1.35;0.50;;;31.50;42.90;;;;;;6067669;23;20379;-92
2023/09/04 12:10:24;;;;;;;1.60;0.50;;;31.60;44.60;;;;;;6070240;23;20934;-96
2023/09/04 12:12:53;;;;;;;1.45;0.60;;;31.50;43.60;;;;;;6068471;23;20384;-93
2023/09/04 12:15:37;;;;;;;1.25;0.40;;;31.60;44.40;;;;;;6071754;23;20460;-93
2023/09/04 12:18:04;;;;;;;1.50;0.50;;;32.00;43.40;;;;;;6070885;23;20423;-93
2023/09/04 12:20:39;;;;;;;0.98;0.40;;;32.20;45.20;;;;;;6092802;23;20400;-92
2023/09/04 12:23:05;;;;;;;1.45;0.40;;;32.30;46.70;;;;;;6070661;23;20408;-93
2023/09/04 12:25:49;;;;;;;2.03;0.30;;;32.50;42.80;;;;;;6091882;23;20857;-93
2023/09/04 12:28:15;;;;;;;1.80;0.30;;;32.80;40.80;;;;;;6073775;23;20384;-94
2023/09/04 12:30:50;;;;;;;1.50;0.40;;;33.00;42.30;;;;;;6068704;23;20399;-94
2023/09/04 12:33:19;;;;;;;2.33;0.50;;;33.10;39.20;;;;;;6069350;23;20393;-94
2023/09/04 12:35:58;;;;;;;1.83;0.40;;;32.90;40.90;;;;;;6073180;23;20372;-93
2023/09/04 12:38:24;;;;;;;1.30;0.30;;;33.00;40.10;;;;;;6071169;23;20447;-94
2023/09/04 12:40:50;;;;;;;2.08;1.10;;;33.10;41.00;;;;;;6070708;23;20392;-94
2023/09/04 12:43:15;;;;;;;2.43;0.43;;;33.20;40.00;;;;;;6068389;23;20705;-93